• Join FlightAware (Why Join?)
  • Login
  • US Flag 
06:02AM EST


 

Airport Tracker/Info


-or-


 

Live Flight TrackerFlight Track Log ✈ N209EA ✈ 27-Jun-2014 ✈ KTYS - KGSO

Flight Track Log - Related Links

Times and Time Zones

All times are in EDT time to prevent confusion due to time zone crossing. See the N209EA flight status page for this flight to view local times or setup timezone preferences in your user account.

Time Position Orientation Groundspeed Altitude Reporting Facility
EDT Latitude Longitude Course Direction KTS MPH feet Rate Location/Type
01:17PM 35.7683 -84.0106 99° East 160 184 2,700  Level Atlanta Center
01:18PM 35.7619 -83.9619 99° East 174 200 5,300 2,340 Climbing Atlanta Center
01:19PM 35.7850 -83.9108 61° Northeast 179 206 7,400 1,860 Climbing Atlanta Center
01:20PM 35.8161 -83.8619 52° Northeast 185 213 9,100 1,680 Climbing Atlanta Center
01:21PM 35.8475 -83.8056 56° Northeast 185 213 10,800 1,560 Climbing Atlanta Center
01:22PM 35.8744 -83.7467 61° Northeast 190 219 12,300 1,500 Climbing Atlanta Center
01:23PM 35.8783 -83.6747 86° East 190 219 13,800 1,500 Climbing Atlanta Center
01:24PM 35.8864 -83.6006 82° East 210 242 15,300 1,380 Climbing Atlanta Center
01:25PM 35.8944 -83.5261 82° East 216 249 16,600 1,200 Climbing Atlanta Center
01:26PM 35.9003 -83.4492 85° East 221 254 17,800 1,080 Climbing Atlanta Center
01:27PM 35.9083 -83.3697 83° East 221 254 18,800 1,020 Climbing Atlanta Center
01:28PM 35.9161 -83.2875 83° East 227 261 19,900 1,020 Climbing Atlanta Center
01:29PM 35.9200 -83.2106 86° East 238 274 20,900 540 Climbing Atlanta Center
01:30PM 35.9275 -83.1206 84° East 252 290 21,000  Climbing Atlanta Center
01:31PM 35.9392 -83.0156 82° East 285 328 21,000  Level Atlanta Center
01:32PM 35.9508 -82.9075 82° East 313 360 21,000  Level Atlanta Center
01:33PM 35.9706 -82.7994 77° East 318 366 21,000  Level Atlanta Center
01:34PM 35.9903 -82.6889 78° East 318 366 21,000  Level Atlanta Center
01:35PM 36.0142 -82.5781 75° East 318 366 21,000  Level Atlanta Center
01:36PM 36.0358 -82.4697 76° East 324 373 21,000  Level Atlanta Center
01:37PM 36.0592 -82.3589 75° East 324 373 21,000  Level Atlanta Center
01:38PM 36.0806 -82.2481 77° East 324 373 21,000  Level Atlanta Center
01:39PM 36.1000 -82.1397 77° East 324 373 21,000  Level Atlanta Center
01:40PM 36.1125 -82.0236 82° East 324 373 21,000  Level Atlanta Center
01:41PM 36.1317 -81.9128 78° East 324 373 21,000 -480 Level Atlanta Center
01:42PM 36.1400 -81.7967 85° East 329 379 20,100 -1,380 Descending Atlanta Center
01:43PM 36.1397 -81.6708 90° East 342 394 18,300 -1,560 Descending Atlanta Center
01:44PM 36.1372 -81.5397 91° East 361 415 17,000 -660 Descending Atlanta Center
01:45PM 36.1386 -81.4164 89° East 366 421 17,000  Level Atlanta Center
01:46PM 36.1383 -81.3031 90° East 347 399 17,100 -600 Climbing Atlanta Center
01:47PM 36.1378 -81.1850 90° East 341 392 15,800 -1,320 Descending Atlanta Center
01:48PM 36.1369 -81.0617 90° East 347 399 14,500 -1,380 Descending Atlanta Center
01:49PM 36.1381 -80.9381 89° East 352 405 13,100 -1,500 Descending Atlanta Center
01:50PM 36.1350 -80.8175 92° East 352 405 11,600 -720 Descending Atlanta Center
01:52PM 36.1200 -80.5764 94° East 333 383 11,000 -240 Descending Atlanta Center
01:53PM 36.1044 -80.4717 100° East 321 369 11,000 -840 Level Atlanta Center
01:54PM 36.0722 -80.3703 111° Southeast 316 364 9,400  Descending Atlanta Center
01:55PM 36.0403 -80.2767 113° Southeast 305 351 11,000 -1,800 Climbing Atlanta Center
01:56PM 35.9919 -80.2019 129° Southeast 282 325 5,900 -3,420 Descending Atlanta Center
01:57PM 35.9831 -80.1178 97° East 246 283 4,200 2,520 Descending Atlanta Center
01:58PM 36.0292 -80.0539 48° Northeast 212 244 11,000 -1,080 Climbing Atlanta Center
01:59PM 36.0628 -80.0033 51° Northeast 203 234 2,100 -4,920 Descending Atlanta Center
02:00PM 36.0908 -79.9686 45° Northeast 168 193 1,200 -900 Descending Atlanta Center
02:02PM 36.1000 -79.9333 28° Northeast  Level FlightAware Approximate
02:09PM 36.1013 -79.9411 28° Northeast  Level Estimated